VMMC/MFM METAR and TAF weather

Enter ICAO airport designator
Station Type Date Time Source
VMMC METAR 2019/10/15 04:00 UTC NOAA

VMMC 150400Z 04010KT 010V080 9999 FEW025 28/21 Q1019 NOSIG


Station Type Date Time Source
VMMC Decoded METAR 2019/10/15 04:00 UTC NOAA

Taipa, Macau (VMMC) 22-10N 113-34E
Oct 15, 2019 - 12:00 AM EDT / 2019.10.15 0400 UTC
Wind: from the NE (040 degrees) at 12 MPH (10 KT) (direction variable):0
Visibility: greater than 7 mile(s):0
Sky conditions: mostly clear
Temperature: 82 F (28 C)
Dew Point: 69 F (21 C)
Relative Humidity: 65%
Pressure (altimeter): 30.09 in. Hg (1019 hPa)
ob: VMMC 150400Z 04010KT 010V080 9999 FEW025 28/21 Q1019 NOSIG
cycle: 4

Station Type Date Time Source
VMMC TAF 2019/10/14 18:22 UTC NOAA

TAF VMMC 141702Z 1418/1524 03012KT 9000 FEW015 SCT030
TEMPO 1420/1424 06015G25KT 4000 SHRA
TEMPO 1515/1524 06018G28KT

Example: see airport list